Flight Track Log - Related Links

Times and Time Zones

All times are in EDT time to prevent confusion due to time zone crossing. See the DAL109 flight status page for this flight to view local times or setup timezone preferences in your user account.

Time Position Orientation Groundspeed Altitude Reporting Facility
EDT Latitude Longitude Course Direction KTS MPH feet Rate Location/Type
Mon 05:04:03 AM 40.4620 -3.5750 North 2 2  Level FlightAware ADS-B
Mon 05:04:54 AM 40.4610 -3.5750 180° South 2 2 116 Level FlightAware ADS-B
Mon 05:05:39 AM 40.4610 -3.5740 90° East 9 10 121 Level FlightAware ADS-B
Mon 05:06:19 AM 40.4610 -3.5750 270° West 126 Level FlightAware ADS-B
Mon 05:08:52 AM 40.4610 -3.5740 90° East 20 23 131 Level FlightAware ADS-B
Mon 05:09:15 AM 40.4620 -3.5730 37° Northeast 21 24 155 Level FlightAware ADS-B
Mon 05:09:38 AM 40.4610 -3.5720 143° Southeast 30 35 159 Level FlightAware ADS-B
Mon 05:10:01 AM 40.4600 -3.5710 143° Southeast 15 17 164 Level FlightAware ADS-B
Mon 05:10:33 AM 40.4600 -3.5690 90° East 24 28 168 Level FlightAware ADS-B
Mon 05:10:59 AM 40.4610 -3.5680 37° Northeast 25 29 176 Level FlightAware ADS-B
Mon 05:11:25 AM 40.4620 -3.5680 360° North 28 32 182 Level FlightAware ADS-B
Mon 05:12:21 AM 40.4640 -3.5670 21° North 30 35 189 Level FlightAware ADS-B
Mon 05:12:50 AM 40.4660 -3.5670 360° North 15 17 205 Level FlightAware ADS-B
Mon 05:13:17 AM 40.4680 -3.5670 360° North 15 17 215 Level FlightAware ADS-B
Mon 05:13:41 AM 40.4690 -3.5670 360° North 16 18 224 Level FlightAware ADS-B
Mon 05:14:21 AM 40.4720 -3.5670 360° North 16 18 234 Level FlightAware ADS-B
Mon 05:15:09 AM 40.4750 -3.5700 323° Northwest 31 36 252 Level FlightAware ADS-B
Mon 05:15:30 AM 40.4760 -3.5710 323° Northwest 17 20 277 Level FlightAware ADS-B
Mon 05:16:23 AM 40.4790 -3.5750 315° West 17 20 290 Level FlightAware ADS-B
Mon 05:17:57 AM 40.4850 -3.5810 323° Northwest 19 22 328 Level FlightAware ADS-B
Mon 05:18:45 AM 40.4880 -3.5820 346° North 31 36 429 Level FlightAware ADS-B
Mon 05:19:09 AM 40.4890 -3.5810 37° Northeast 30 35 508 Level FlightAware ADS-B
Mon 05:20:07 AM 40.4890 -3.5770 90° East 28 32 559 Level FlightAware ADS-B
Mon 05:20:51 AM 40.4940 -3.5770 360° North 30 35 742 Level FlightAware ADS-B
Mon 05:22:33 AM 40.5030 -3.5760 North 140 161 985 Level FlightAware ADS-B
Mon 05:22:47 AM 40.5130 -3.5760 360° North 175 201 4,125 Level FlightAware ADS-B
Mon 05:23:05 AM 40.5300 -3.5760 360° North 206 237 2,200 5,357 Climbing FlightAware ADS-B
Mon 05:23:15 AM 40.5390 -3.5760 360° North 212 244 2,500 2,294 Climbing FlightAware ADS-B
Mon 05:23:39 AM 40.5640 -3.5790 355° North 220 253 3,500 2,400 Climbing FlightAware ADS-B
Mon 05:23:55 AM 40.5760 -3.5930 318° Northwest 226 260 4,100 2,182 Climbing FlightAware ADS-B
Mon 05:24:23 AM 40.5930 -3.6230 307° West 224 258 5,100 1,393 Climbing FlightAware ADS-B
Mon 05:24:51 AM 40.6150 -3.6520 315° West 258 297 5,400 923 Climbing FlightAware ADS-B
Mon 05:25:15 AM 40.6370 -3.6730 324° Northwest 274 315 5,900 1,650 Climbing FlightAware ADS-B
Mon 05:25:31 AM 40.6610 -3.6760 355° North 285 328 6,500 2,182 Climbing FlightAware ADS-B
Mon 05:25:59 AM 40.6980 -3.6710 North 291 335 7,500 2,286 Climbing FlightAware ADS-B
Mon 05:26:13 AM 40.7160 -3.6690 North 292 336 8,100 2,368 Climbing FlightAware ADS-B
Mon 05:26:37 AM 40.7480 -3.6640 North 294 338 9,000 2,276 Climbing FlightAware ADS-B
Mon 05:27:11 AM 40.7890 -3.6890 335° Northwest 291 335 10,300 1,703 Climbing FlightAware ADS-B
Mon 05:27:51 AM 40.8180 -3.7530 301° West 327 376 11,100 1,459 Climbing FlightAware ADS-B
Mon 05:28:25 AM 40.8430 -3.8150 298° West 346 398 12,100 2,308 Climbing FlightAware ADS-B
Mon 05:29:09 AM 40.8760 -3.8950 299° West 341 392 14,100 2,372 Climbing FlightAware ADS-B
Mon 05:29:51 AM 40.9080 -3.9730 299° West 349 402 15,500 2,000 Climbing FlightAware ADS-B
Mon 05:30:27 AM 40.9350 -4.0390 298° West 353 406 16,700 1,440 Climbing FlightAware ADS-B
Mon 05:31:06 AM 40.9680 -4.1180 299° West 382 440 17,300 878 Climbing FlightAware ADS-B
Mon 05:31:49 AM 41.0070 -4.2120 299° West 413 475 17,900 918 Climbing FlightAware ADS-B
Mon 05:32:31 AM 41.0430 -4.3080 296° West 437 503 18,600 1,071 Climbing FlightAware ADS-B
Mon 05:33:13 AM 41.0810 -4.4100 296° West 455 524 19,400 1,357 Climbing FlightAware ADS-B
Mon 05:33:55 AM 41.1200 -4.5180 296° West 463 533 20,500 1,605 Climbing FlightAware ADS-B
Mon 05:34:39 AM 41.1620 -4.6320 296° West 470 541 21,700 1,571 Climbing FlightAware ADS-B
Mon 05:35:19 AM 41.2010 -4.7380 296° West 476 548 22,700 1,429 Climbing FlightAware ADS-B
Mon 05:36:03 AM 41.2420 -4.8520 296° West 481 554 23,700 1,643 Climbing FlightAware ADS-B
Mon 05:36:43 AM 41.2810 -4.9590 296° West 476 548 25,000 1,000 Climbing FlightAware ADS-B
Mon 05:37:21 AM 41.3110 -5.0450 295° West 476 548 25,000  Level FlightAware ADS-B
Mon 05:38:10 AM 41.3500 -5.1560 295° West 476 548 25,000  Level FlightAware ADS-B
Mon 05:38:46 AM 41.3780 -5.2370 295° West 476 548 25,000  Level FlightAware ADS-B
Mon 05:39:34 AM 41.4160 -5.3460 295° West 476 548 25,000 3,488 Level FlightAware ADS-B
Mon 05:40:12 AM 41.4730 -5.4940 297° West 454 522 30,000 3,831 Climbing FlightAware ADS-B
Mon 05:40:57 AM 41.5040 -5.6130 289° West 445 512 30,300 706 Climbing FlightAware ADS-B
Mon 05:41:37 AM 41.4790 -5.7140 252° West 436 502 31,000 560 Climbing FlightAware ADS-B
Mon 05:42:12 AM 41.4380 -5.7890 234° Southwest 434 499 31,000  Level FlightAware ADS-B
Mon 05:42:57 AM 41.3830 -5.8860 233° Southwest 432 497 31,000  Level FlightAware ADS-B
Mon 05:43:37 AM 41.3350 -5.9710 233° Southwest 432 497 31,000  Level FlightAware ADS-B
Mon 05:44:17 AM 41.2870 -6.0570 233° Southwest 433 498 31,000  Level FlightAware ADS-B
Mon 05:44:52 AM 41.2480 -6.1320 235° Southwest 432 497 31,000  Level FlightAware ADS-B
Mon 05:45:07 AM 41.2410 -6.1720 257° West 435 501 31,000  Level FlightAware ADS-B
Mon 05:45:47 AM 41.2350 -6.2760 266° West 438 504 31,000  Level FlightAware ADS-B
Mon 05:46:27 AM 41.2360 -6.3800 271° West 440 506 31,000  Level FlightAware ADS-B
Mon 05:47:12 AM 41.2380 -6.5070 271° West 440 506 31,000  Level FlightAware ADS-B
Mon 05:47:52 AM 41.2390 -6.6150 271° West 439 505 31,000  Level FlightAware ADS-B
Mon 05:48:32 AM 41.2390 -6.7230 270° West 439 505 31,000  Level FlightAware ADS-B
Mon 05:49:17 AM 41.2390 -6.8440 270° West 439 505 31,000  Level FlightAware ADS-B
Mon 05:49:57 AM 41.2390 -6.9510 270° West 438 504 31,000  Level FlightAware ADS-B
Mon 05:50:37 AM 41.2400 -7.0590 271° West 438 504 31,000  Level FlightAware ADS-B
Mon 05:51:17 AM 41.2400 -7.1610 270° West 437 503 31,000  Level FlightAware ADS-B
Mon 05:51:52 AM 41.2410 -7.2580 271° West 436 502 31,000  Level FlightAware ADS-B
Mon 05:52:37 AM 41.2410 -7.3760 270° West 436 502 31,000  Level FlightAware ADS-B
Mon 05:53:17 AM 41.2410 -7.4860 270° West 436 502 31,000  Level FlightAware ADS-B
Mon 05:54:12 AM 41.2410 -7.6330 270° West 437 503 31,000  Level FlightAware ADS-B
Mon 05:55:07 AM 41.2400 -7.7790 270° West 438 504 31,000  Level FlightAware ADS-B
Mon 05:55:47 AM 41.2400 -7.8880 270° West 438 504 31,000  Level FlightAware ADS-B
Mon 05:56:22 AM 41.2400 -7.9750 270° West 439 505 31,000  Level FlightAware ADS-B
Mon 05:57:07 AM 41.2390 -8.0980 269° West 439 505 31,000  Level FlightAware ADS-B
Mon 05:58:17 AM 41.2380 -8.2900 270° West 439 505 31,000  Level FlightAware ADS-B
Mon 05:58:57 AM 41.2380 -8.3990 270° West 440 506 31,000  Level FlightAware ADS-B
Mon 05:59:37 AM 41.2370 -8.5020 269° West 441 507 31,000  Level FlightAware ADS-B
Mon 06:00:40 AM 41.2350 -8.6790 269° West 442 509 31,000  Level FlightAware ADS-B
Mon 06:01:15 AM 41.2340 -8.7730 269° West 442 509 31,000  Level FlightAware ADS-B
Mon 06:02:00 AM 41.2330 -8.8860 269° West 442 509 31,000  Level FlightAware ADS-B
Mon 06:02:40 AM 41.2320 -8.9990 269° West 443 510 31,000  Level FlightAware ADS-B
Mon 06:03:26 AM 41.2300 -9.1190 269° West 442 509 31,000  Level FlightAware ADS-B
Mon 06:04:07 AM 41.2290 -9.2250 269° West 442 509 31,000  Level FlightAware ADS-B
Mon 06:04:47 AM 41.2280 -9.3380 269° West 442 509 31,000  Level FlightAware ADS-B
Mon 06:05:26 AM 41.2300 -9.4510 271° West 445 512 31,000  Level FlightAware ADS-B
Mon 06:06:05 AM 41.2350 -9.5570 274° West 444 511 31,000  Level FlightAware ADS-B
Mon 06:07:01 AM 41.2430 -9.7050 274° West 446 513 31,000  Level FlightAware ADS-B
Mon 06:07:46 AM 41.2480 -9.8340 273° West 446 513 31,000  Level FlightAware ADS-B
Mon 06:08:40 AM 41.2520 -9.9690 272° West 444 511 31,000  Level FlightAware ADS-B
Mon 06:09:24 AM 41.2500 -10.0910 269° West 443 510 31,000  Level FlightAware ADS-B
Mon 06:10:03 AM 41.2470 -10.1970 268° West 443 510 31,000  Level FlightAware ADS-B
Mon 06:10:47 AM 41.2430 -10.3180 268° West 442 509 31,000  Level FlightAware ADS-B
Mon 06:11:29 AM 41.2390 -10.4310 267° West 441 507 31,000  Level FlightAware ADS-B
Mon 06:12:06 AM 41.2360 -10.5380 268° West 440 506 31,000  Level FlightAware ADS-B
Mon 06:13:09 AM 41.2310 -10.6920 268° West 438 504 31,000  Level FlightAware ADS-B
Mon 06:13:48 AM 41.2270 -10.8050 267° West 437 503 31,000  Level FlightAware ADS-B
Mon 06:14:44 AM 41.2220 -10.9440 267° West 439 505 31,000  Level FlightAware ADS-B
Mon 06:15:23 AM 41.2180 -11.0580 267° West 443 510 31,000  Level FlightAware ADS-B
Mon 06:16:24 AM 41.2120 -11.2090 267° West 445 512 31,000  Level FlightAware ADS-B
Mon 06:17:28 AM 41.2050 -11.4030 267° West 449 517 31,000  Level FlightAware ADS-B
Mon 06:18:32 AM 41.1980 -11.5680 267° West 451 519 31,000  Level FlightAware ADS-B
Mon 06:19:12 AM 41.1940 -11.6620 267° West 451 519 31,000  Level FlightAware ADS-B
Mon 06:19:48 AM 41.1910 -11.7470 267° West 451 519 31,000  Level FlightAware ADS-B
Mon 06:20:27 AM 41.1870 -11.8390 267° West 451 519 31,000  Level FlightAware ADS-B
Mon 06:21:15 AM 41.1830 -11.9520 267° West 451 519 31,000  Level FlightAware ADS-B
Mon 06:21:53 AM 41.1730 -12.1320 266° West 452 520 31,000  Level FlightAware ADS-B
Mon 06:23:08 AM 41.1640 -12.3160 266° West 451 519 31,000  Level FlightAware ADS-B
Mon 06:24:04 AM 41.1570 -12.4690 267° West 451 519 31,000  Level FlightAware ADS-B
Mon 06:24:41 AM 41.1520 -12.5560 266° West 451 519 31,000  Level FlightAware ADS-B
Mon 06:25:29 AM 41.1460 -12.6680 266° West 451 519 31,000  Level FlightAware ADS-B
Mon 06:26:05 AM 41.1420 -12.7530 266° West 451 519 31,000  Level FlightAware ADS-B
Mon 06:26:42 AM 41.1370 -12.8400 266° West 451 519 31,000  Level FlightAware ADS-B
Mon 06:27:30 AM 41.1310 -12.9530 266° West 451 519 31,000  Level FlightAware ADS-B
Mon 06:28:30 AM 41.1240 -13.0940 266° West 451 519 31,000  Level FlightAware ADS-B
Mon 06:29:06 AM 41.1190 -13.1780 266° West 451 519 31,000  Level FlightAware ADS-B
Mon 06:29:45 AM 41.1140 -13.2700 266° West 451 519 31,000  Level FlightAware ADS-B
Mon 06:30:22 AM 41.1100 -13.3570 267° West 451 519 31,000  Level FlightAware ADS-B
Mon 06:31:10 AM 41.1040 -13.4690 266° West 451 519 31,000  Level FlightAware ADS-B
Mon 06:31:47 AM 41.0990 -13.5560 266° West 451 519 31,000  Level FlightAware ADS-B
Mon 06:32:23 AM 41.0950 -13.6410 266° West 451 519 31,000  Level FlightAware ADS-B
Mon 06:33:01 AM 41.0900 -13.7300 266° West 451 519 31,000  Level FlightAware ADS-B
Mon 06:35:00 AM 41.0675 -14.0668 265° West  Level FlightAware Approximate
Mon 06:36:00 AM 41.0558 -14.2365 265° West  Level FlightAware Approximate
Mon 06:37:00 AM 41.0438 -14.4062 265° West  Level FlightAware Approximate
Mon 06:38:00 AM 41.0316 -14.5758 265° West  Level FlightAware Approximate
Mon 06:39:00 AM 41.0192 -14.7453 264° West  Level FlightAware Approximate
Mon 06:40:00 AM 41.0065 -14.9148 264° West  Level FlightAware Approximate
Mon 06:41:00 AM 40.9854 -15.0829 257° West  Level FlightAware Approximate
Mon 06:42:00 AM 40.9560 -15.2486 257° West  Level FlightAware Approximate
Mon 06:43:00 AM 40.9264 -15.4142 257° West  Level FlightAware Approximate
Mon 06:44:00 AM 40.8966 -15.5796 257° West  Level FlightAware Approximate
Mon 06:45:00 AM 40.8665 -15.7448 257° West  Level FlightAware Approximate
Mon 06:46:00 AM 40.8362 -15.9099 256° West  Level FlightAware Approximate
Mon 06:47:00 AM 40.8056 -16.0749 256° West  Level FlightAware Approximate
Mon 06:48:00 AM 40.7748 -16.2397 256° West  Level FlightAware Approximate
Mon 06:49:00 AM 40.7438 -16.4043 256° West  Level FlightAware Approximate
Mon 06:50:00 AM 40.7126 -16.5688 256° West  Level FlightAware Approximate
Mon 06:51:00 AM 40.6811 -16.7332 256° West  Level FlightAware Approximate
Mon 06:52:00 AM 40.6494 -16.8973 256° West  Level FlightAware Approximate
Mon 06:53:00 AM 40.6174 -17.0613 256° West  Level FlightAware Approximate
Mon 06:54:00 AM 40.5852 -17.2252 256° West  Level FlightAware Approximate
Mon 06:55:00 AM 40.5528 -17.3889 255° West  Level FlightAware Approximate
Mon 06:56:00 AM 40.5202 -17.5525 255° West  Level FlightAware Approximate
Mon 06:57:00 AM 40.4873 -17.7159 255° West  Level FlightAware Approximate
Mon 06:58:00 AM 40.4542 -17.8791 255° West  Level FlightAware Approximate
Mon 06:59:00 AM 40.4208 -18.0422 255° West  Level FlightAware Approximate
Mon 07:00:00 AM 40.3873 -18.2051 255° West  Level FlightAware Approximate
Mon 07:01:00 AM 40.3535 -18.3678 255° West  Level FlightAware Approximate
Mon 07:02:00 AM 40.3195 -18.5304 255° West  Level FlightAware Approximate
Mon 07:03:00 AM 40.2852 -18.6928 255° West  Level FlightAware Approximate
Mon 07:04:00 AM 40.2508 -18.8550 254° West  Level FlightAware Approximate
Mon 07:05:00 AM 40.2161 -19.0171 254° West  Level FlightAware Approximate
Mon 07:06:00 AM 40.1811 -19.1790 254° West  Level FlightAware Approximate
Mon 07:07:00 AM 40.1460 -19.3408 254° West  Level FlightAware Approximate
Mon 07:08:00 AM 40.1106 -19.5024 254° West  Level FlightAware Approximate
Mon 07:09:00 AM 40.0750 -19.6638 254° West  Level FlightAware Approximate
Mon 07:10:00 AM 40.0392 -19.8250 254° West  Level FlightAware Approximate
Mon 07:11:00 AM 40.0031 -19.9861 254° West  Level FlightAware Approximate
Mon 07:12:00 AM 39.9770 -20.1502 259° West  Level FlightAware Approximate
Mon 07:13:00 AM 39.9516 -20.3146 259° West  Level FlightAware Approximate
Mon 07:14:00 AM 39.9260 -20.4788 259° West  Level FlightAware Approximate
Mon 07:15:00 AM 39.9002 -20.6430 258° West  Level FlightAware Approximate
Mon 07:16:00 AM 39.8741 -20.8070 258° West  Level FlightAware Approximate
Mon 07:17:00 AM 39.8478 -20.9708 258° West  Level FlightAware Approximate
Mon 07:18:00 AM 39.8212 -21.1346 258° West  Level FlightAware Approximate
Mon 07:19:00 AM 39.7944 -21.2982 258° West  Level FlightAware Approximate
Mon 07:20:00 AM 39.7674 -21.4617 258° West  Level FlightAware Approximate
Mon 07:21:00 AM 39.7402 -21.6250 258° West  Level FlightAware Approximate
Mon 07:22:00 AM 39.7128 -21.7883 258° West  Level FlightAware Approximate
Mon 07:23:00 AM 39.6851 -21.9514 258° West  Level FlightAware Approximate
Mon 07:24:00 AM 39.6572 -22.1143 258° West  Level FlightAware Approximate
Mon 07:25:00 AM 39.6290 -22.2772 257° West  Level FlightAware Approximate
Mon 07:25:31 AM 39.6450 -22.1300 257° West 456 525 31,000  Level FlightAware ADS-B
Mon 07:26:00 AM 39.6006 -22.4399 257° West  Level FlightAware Approximate
Mon 07:26:19 AM 39.6260 -22.2390 257° West 456 525 31,000  Level FlightAware ADS-B
Mon 07:27:11 AM 39.5980 -22.4060 258° West 457 526 31,000  Level FlightAware ADS-B
Mon 07:28:00 AM 39.5780 -22.5180 257° West 457 526 31,000  Level FlightAware ADS-B
Mon 07:28:36 AM 39.5590 -22.6280 257° West 458 527 31,000  Level FlightAware ADS-B
Mon 07:29:37 AM 39.5270 -22.8090 257° West 458 527 31,000  Level FlightAware ADS-B
Mon 07:30:36 AM 39.5020 -22.9490 257° West 458 527 31,000  Level FlightAware ADS-B
Mon 07:31:20 AM 39.4770 -23.0850 257° West 460 529 31,000  Level FlightAware ADS-B
Mon 07:32:00 AM 39.4580 -23.1890 257° West 460 529 31,000  Level FlightAware ADS-B
Mon 07:32:47 AM 39.4350 -23.3140 257° West 461 531 31,000  Level FlightAware ADS-B
Mon 07:33:23 AM 39.4190 -23.4010 257° West 461 531 31,000  Level FlightAware ADS-B
Mon 07:34:04 AM 39.3940 -23.5380 257° West 462 532 31,000  Level FlightAware ADS-B
Mon 07:34:53 AM 39.3720 -23.6570 257° West 464 534 31,000  Level FlightAware ADS-B
Mon 07:35:41 AM 39.3440 -23.8070 256° West 465 535 31,000  Level FlightAware ADS-B
Mon 07:36:21 AM 39.3330 -23.8680 257° West 465 535 31,000  Level FlightAware ADS-B
Mon 07:37:06 AM 39.3030 -24.0230 256° West 466 536 31,000  Level FlightAware ADS-B
Mon 07:37:39 AM 39.2930 -24.0760 256° West 466 536 31,000  Level FlightAware ADS-B
Mon 07:38:36 AM 39.2630 -24.2360 256° West 466 536 31,000  Level FlightAware ADS-B
Mon 07:39:37 AM 39.2220 -24.4480 256° West 466 536 31,000  Level FlightAware ADS-B
Mon 07:40:13 AM 39.2120 -24.4980 256° West 467 537 31,000  Level FlightAware ADS-B
Mon 07:40:57 AM 39.1870 -24.6270 256° West 468 539 31,000  Level FlightAware ADS-B
Mon 07:41:43 AM 39.1670 -24.7270 256° West 469 540 31,000  Level FlightAware ADS-B
Mon 07:42:26 AM 39.1410 -24.8600 256° West 469 540 31,000  Level FlightAware ADS-B
Mon 07:43:11 AM 39.1180 -24.9730 255° West 469 540 31,000 535 Level FlightAware ADS-B
Mon 07:44:07 AM 39.0820 -25.1570 256° West 467 537 31,900 741 Climbing FlightAware ADS-B
Mon 07:44:32 AM 39.0720 -25.2060 255° West 468 539 32,000 65 Climbing FlightAware ADS-B
Mon 07:45:40 AM 39.0320 -25.4030 255° West 468 539 32,000  Level FlightAware ADS-B
Mon 07:46:25 AM 39.0120 -25.5020 255° West 464 534 32,000  Level FlightAware ADS-B
Mon 07:47:05 AM 38.9910 -25.6060 255° West 460 529 32,000  Level FlightAware ADS-B
Mon 07:47:47 AM 38.9580 -25.7650 255° West 457 526 32,000  Level FlightAware ADS-B
Mon 07:48:27 AM 38.9360 -25.8710 255° West 455 524 32,000  Level FlightAware ADS-B
Mon 07:49:12 AM 38.9110 -25.9890 255° West 455 524 32,000  Level FlightAware ADS-B
Mon 07:49:52 AM 38.8900 -26.0940 256° West 455 524 32,000  Level FlightAware ADS-B
Mon 07:50:32 AM 38.8680 -26.1990 255° West 453 521 32,000  Level FlightAware ADS-B
Mon 07:51:12 AM 38.8450 -26.3020 254° West 455 524 32,000  Level FlightAware ADS-B
Mon 07:51:57 AM 38.8210 -26.4200 255° West 455 524 32,000  Level FlightAware ADS-B
Mon 07:52:42 AM 38.7960 -26.5370 255° West 455 524 32,000  Level FlightAware ADS-B
Mon 07:53:27 AM 38.7710 -26.6530 255° West 456 525 32,000  Level FlightAware ADS-B
Mon 07:54:07 AM 38.7480 -26.7590 254° West 458 527 32,000  Level FlightAware ADS-B
Mon 07:54:47 AM 38.7250 -26.8660 255° West 460 529 32,000  Level FlightAware ADS-B
Mon 07:55:32 AM 38.6990 -26.9850 254° West 463 533 32,000  Level FlightAware ADS-B
Mon 07:56:13 AM 38.6750 -27.0900 254° West 464 534 32,000  Level FlightAware ADS-B
Mon 07:56:54 AM 38.6570 -27.1740 255° West 466 536 32,000  Level FlightAware ADS-B
Mon 07:57:32 AM 38.6350 -27.2720 254° West 467 537 32,000  Level FlightAware ADS-B
Mon 07:58:30 AM 38.5940 -27.4560 254° West 468 539 32,000  Level FlightAware ADS-B
Mon 07:59:15 AM 38.5680 -27.5740 254° West 469 540 32,000  Level FlightAware ADS-B
Mon 07:59:55 AM 38.5440 -27.6820 254° West 469 540 32,000  Level FlightAware ADS-B
Mon 08:00:40 AM 38.5170 -27.8000 254° West 469 540 32,000  Level FlightAware ADS-B
Mon 08:01:22 AM 38.4930 -27.9060 254° West 469 540 32,000  Level FlightAware ADS-B
Mon 08:02:00 AM 38.4690 -28.0110 254° West 470 541 32,000  Level FlightAware ADS-B
Mon 08:02:45 AM 38.4410 -28.1320 254° West 469 540 32,000  Level FlightAware ADS-B
Mon 08:03:30 AM 38.4130 -28.2520 253° West 470 541 32,000  Level FlightAware ADS-B
Mon 08:04:10 AM 38.3890 -28.3560 254° West 468 539 32,000  Level FlightAware ADS-B
Mon 08:04:52 AM 38.3650 -28.4570 253° West 468 539 32,000  Level FlightAware ADS-B
Mon 08:05:25 AM 38.3420 -28.5550 253° West 466 536 32,000  Level FlightAware ADS-B
Mon 08:06:10 AM 38.3140 -28.6740 253° West 465 535 32,000  Level FlightAware ADS-B
Mon 08:06:50 AM 38.2900 -28.7760 253° West 467 537 32,000  Level FlightAware ADS-B
Mon 08:07:25 AM 38.2680 -28.8700 253° West 465 535 32,000  Level FlightAware ADS-B
Mon 08:08:10 AM 38.2400 -28.9860 253° West 466 536 32,000  Level FlightAware ADS-B
Mon 08:08:45 AM 38.2180 -29.0800 253° West 465 535 32,000  Level FlightAware ADS-B
Mon 08:09:30 AM 38.1890 -29.1980 253° West 465 535 32,000  Level FlightAware ADS-B
Mon 08:10:15 AM 38.1600 -29.3180 253° West 465 535 32,000  Level FlightAware ADS-B
Mon 08:10:50 AM 38.1380 -29.4090 253° West 465 535 32,000  Level FlightAware ADS-B
Mon 08:11:35 AM 38.1130 -29.5120 253° West 465 535 32,000  Level FlightAware ADS-B
Mon 08:12:26 AM 38.0860 -29.6240 253° West 468 539 32,000  Level FlightAware ADS-B
Mon 08:13:09 AM 38.0520 -29.7610 253° West 466 536 32,000  Level FlightAware ADS-B
Mon 08:13:50 AM 38.0220 -29.8800 252° West 467 537 32,000  Level FlightAware ADS-B
Mon 08:14:30 AM 37.9970 -29.9850 253° West 467 537 32,000  Level FlightAware ADS-B
Mon 08:15:10 AM 37.9780 -30.0920 257° West 466 536 32,000  Level FlightAware ADS-B
Mon 08:15:56 AM 37.9590 -30.2140 259° West 468 539 32,000  Level FlightAware ADS-B
Mon 08:16:36 AM 37.9430 -30.3180 259° West 468 539 32,000  Level FlightAware ADS-B
Mon 08:17:07 AM 37.9320 -30.3850 258° West 468 539 32,000  Level FlightAware ADS-B
Mon 08:19:00 AM 37.8842 -30.6857 259° West  Level FlightAware Approximate
Mon 08:19:06 AM 37.8790 -30.7230 259° West 32,000  Level FlightAware ADS-B
Mon 08:19:46 AM 37.8610 -30.8330 258° West 470 541 32,000  Level FlightAware ADS-B
Mon 08:20:31 AM 37.8420 -30.9510 259° West 471 542 32,000  Level FlightAware ADS-B
Mon 08:21:11 AM 37.8230 -31.0630 258° West 471 542 32,000  Level FlightAware ADS-B
Mon 08:21:50 AM 37.8080 -31.1530 258° West 471 542 32,000  Level FlightAware ADS-B
Mon 08:22:38 AM 37.7900 -31.2630 258° West 471 542 32,000  Level FlightAware ADS-B
Mon 08:23:14 AM 37.7760 -31.3450 258° West 471 542 32,000  Level FlightAware ADS-B
Mon 08:23:51 AM 37.7620 -31.4300 258° West 471 542 32,000  Level FlightAware ADS-B
Mon 08:24:28 AM 37.7480 -31.5150 258° West 471 542 32,000  Level FlightAware ADS-B
Mon 08:27:00 AM 37.6796 -31.9174 258° West  Level FlightAware Approximate
Mon 08:28:00 AM 37.6523 -32.0760 258° West  Level FlightAware Approximate
Mon 08:29:00 AM 37.6247 -32.2345 258° West  Level FlightAware Approximate
Mon 08:30:00 AM 37.5969 -32.3929 258° West  Level FlightAware Approximate
Mon 08:31:00 AM 37.5690 -32.5512 257° West  Level FlightAware Approximate
Mon 08:32:00 AM 37.5407 -32.7093 257° West  Level FlightAware Approximate
Mon 08:33:00 AM 37.5123 -32.8673 257° West  Level FlightAware Approximate
Mon 08:34:00 AM 37.4837 -33.0252 257° West  Level FlightAware Approximate
Mon 08:35:00 AM 37.4549 -33.1830 257° West  Level FlightAware Approximate
Mon 08:36:00 AM 37.4258 -33.3407 257° West  Level FlightAware Approximate
Mon 08:37:00 AM 37.3966 -33.4982 257° West  Level FlightAware Approximate
Mon 08:38:00 AM 37.3671 -33.6557 257° West  Level FlightAware Approximate
Mon 08:39:00 AM 37.3375 -33.8130 257° West  Level FlightAware Approximate
Mon 08:40:00 AM 37.3076 -33.9701 257° West  Level FlightAware Approximate
Mon 08:41:00 AM 37.2775 -34.1272 257° West  Level FlightAware Approximate
Mon 08:42:00 AM 37.2472 -34.2841 256° West  Level FlightAware Approximate
Mon 08:43:00 AM 37.2167 -34.4409 256° West  Level FlightAware Approximate
Mon 08:44:00 AM 37.1860 -34.5976 256° West  Level FlightAware Approximate
Mon 08:45:00 AM 37.1551 -34.7541 256° West  Level FlightAware Approximate
Mon 08:46:00 AM 37.1240 -34.9105 256° West  Level FlightAware Approximate
Mon 08:47:00 AM 37.0927 -35.0668 256° West  Level FlightAware Approximate
Mon 08:48:00 AM 37.0611 -35.2229 256° West  Level FlightAware Approximate
Mon 08:49:00 AM 37.0294 -35.3790 256° West  Level FlightAware Approximate
Mon 08:50:00 AM 36.9975 -35.5349 256° West  Level FlightAware Approximate
Mon 08:51:00 AM 36.9653 -35.6906 256° West  Level FlightAware Approximate
Mon 08:52:00 AM 36.9330 -35.8462 255° West  Level FlightAware Approximate
Mon 08:53:00 AM 36.9004 -36.0018 255° West  Level FlightAware Approximate
Mon 08:54:00 AM 36.8677 -36.1571 255° West  Level FlightAware Approximate
Mon 08:55:00 AM 36.8347 -36.3123 255° West  Level FlightAware Approximate
Mon 08:56:00 AM 36.8016 -36.4674 255° West  Level FlightAware Approximate
Mon 08:57:00 AM 36.7682 -36.6224 255° West  Level FlightAware Approximate
Mon 08:58:00 AM 36.7347 -36.7772 255° West  Level FlightAware Approximate
Mon 08:59:00 AM 36.7013 -36.9320 255° West  Level FlightAware Approximate
Mon 09:00:00 AM 36.6677 -37.0867 255° West  Level FlightAware Approximate
Mon 09:01:00 AM 36.6339 -37.2413 255° West  Level FlightAware Approximate
Mon 09:02:00 AM 36.5999 -37.3957 255° West  Level FlightAware Approximate
Mon 09:03:00 AM 36.5658 -37.5500 255° West  Level FlightAware Approximate
Mon 09:04:00 AM 36.5314 -37.7041 255° West  Level FlightAware Approximate
Mon 09:05:00 AM 36.4968 -37.8581 254° West  Level FlightAware Approximate
Mon 09:06:00 AM 36.4621 -38.0120 254° West  Level FlightAware Approximate
Mon 09:07:00 AM 36.4271 -38.1657 254° West  Level FlightAware Approximate
Mon 09:08:00 AM 36.3919 -38.3193 254° West  Level FlightAware Approximate
Mon 09:09:00 AM 36.3566 -38.4727 254° West  Level FlightAware Approximate
Mon 09:10:00 AM 36.3210 -38.6260 254° West  Level FlightAware Approximate
Mon 09:11:00 AM 36.2853 -38.7792 254° West  Level FlightAware Approximate
Mon 09:12:00 AM 36.2493 -38.9322 254° West  Level FlightAware Approximate
Mon 09:13:00 AM 36.2138 -39.0853 254° West  Level FlightAware Approximate
Mon 09:14:00 AM 36.1786 -39.2385 254° West  Level FlightAware Approximate
Mon 09:15:00 AM 36.1431 -39.3915 254° West  Level FlightAware Approximate
Mon 09:16:00 AM 36.1075 -39.5443 254° West  Level FlightAware Approximate
Mon 09:17:00 AM 36.0717 -39.6971 254° West  Level FlightAware Approximate
Mon 09:17:21 AM 36.0000 -40.0000 266° West 493 567 32,000  Level New York Oceanic (ODAPS)
Mon 09:18:00 AM 36.0357 -39.8497 254° West  Level FlightAware Approximate
Mon 09:19:00 AM 35.9999 -40.0022 266° West  Level FlightAware Approximate
Mon 09:20:00 AM 35.9906 -40.1606 266° West  Level FlightAware Approximate
Mon 09:21:00 AM 35.9812 -40.3190 266° West  Level FlightAware Approximate
Mon 09:22:00 AM 35.9715 -40.4774 266° West  Level FlightAware Approximate
Mon 09:23:00 AM 35.9375 -41.0101 265° West 493 567 32,000  Level FlightAware Transoceanic
Mon 09:24:00 AM 35.9262 -41.1782 265° West 493 567 32,000  Level FlightAware Transoceanic
Mon 09:25:00 AM 35.9148 -41.3464 265° West 493 567 32,000  Level FlightAware Transoceanic
Mon 09:26:00 AM 35.9030 -41.5145 265° West 493 567 32,000  Level FlightAware Transoceanic
Mon 09:27:00 AM 35.8911 -41.6825 265° West 493 567 32,000  Level FlightAware Transoceanic
Mon 09:27:14 AM 35.8833 -41.7500 265° West 494 568 32,000  Level New York Oceanic (ODAPS)
Mon 09:28:00 AM 35.8789 -41.8505 265° West 493 567 32,000  Level FlightAware Transoceanic
Mon 09:29:00 AM 35.8665 -42.0184 265° West 493 567 32,000  Level FlightAware Transoceanic
Mon 09:30:00 AM 35.8539 -42.1863 265° West 493 567 32,000  Level FlightAware Transoceanic
Mon 09:31:00 AM 35.8410 -42.3541 265° West 493 567 32,000  Level FlightAware Transoceanic
Mon 09:32:00 AM 35.8279 -42.5219 264° West 493 567 32,000  Level FlightAware Transoceanic
Mon 09:33:00 AM 35.8056 -42.7692 264° West 494 568 32,000  Level FlightAware Transoceanic
Mon 09:34:00 AM 35.7918 -42.9389 264° West 494 568 32,000  Level FlightAware Transoceanic
Mon 09:35:00 AM 35.7777 -43.1085 264° West 494 568 32,000  Level FlightAware Transoceanic
Mon 09:36:00 AM 35.7635 -43.2780 264° West 494 568 32,000  Level FlightAware Transoceanic
Mon 09:37:00 AM 35.7489 -43.4475 264° West 494 568 32,000  Level FlightAware Transoceanic
Mon 09:38:00 AM 35.7342 -43.6170 264° West 494 568 32,000  Level FlightAware Transoceanic
Mon 09:39:00 AM 35.7192 -43.7863 264° West 494 568 32,000  Level FlightAware Transoceanic
Mon 09:40:00 AM 35.7040 -43.9556 264° West 494 568 32,000  Level FlightAware Transoceanic
Mon 09:41:00 AM 35.6885 -44.1249 264° West 494 568 32,000  Level FlightAware Transoceanic
Mon 09:41:08 AM 35.7000 -44.1000 263° West 498 573 32,000  Level New York Oceanic (ODAPS)
Mon 09:42:00 AM 35.6728 -44.2940 263° West 494 568 32,000  Level FlightAware Transoceanic
Mon 09:43:00 AM 35.6569 -44.4631 263° West 494 568 32,000  Level FlightAware Transoceanic
Mon 09:44:00 AM 35.6407 -44.6322 263° West 494 568 32,000  Level FlightAware Transoceanic
Mon 09:45:00 AM 35.6243 -44.8011 263° West 494 568 32,000  Level FlightAware Transoceanic
Mon 09:46:00 AM 35.6077 -44.9700 263° West 494 568 32,000  Level FlightAware Transoceanic
Mon 09:47:00 AM 35.6005 -45.1184 263° West 498 573 32,000  Level FlightAware Transoceanic
Mon 09:48:00 AM 35.5830 -45.2879 263° West 498 573 32,000  Level FlightAware Transoceanic
Mon 09:49:00 AM 35.5654 -45.4573 263° West 498 573 32,000  Level FlightAware Transoceanic
Mon 09:50:00 AM 35.5475 -45.6266 263° West 498 573 32,000  Level FlightAware Transoceanic
Mon 09:51:00 AM 35.5294 -45.7959 262° West 498 573 32,000  Level FlightAware Transoceanic
Mon 09:52:00 AM 35.5110 -45.9651 262° West 498 573 32,000  Level FlightAware Transoceanic
Mon 09:53:00 AM 35.4924 -46.1342 262° West 498 573 32,000  Level FlightAware Transoceanic
Mon 09:54:00 AM 35.4735 -46.3032 262° West 498 573 32,000  Level FlightAware Transoceanic
Mon 09:55:00 AM 35.4545 -46.4721 262° West 498 573 32,000  Level FlightAware Transoceanic
Mon 09:55:00 AM 35.4500 -46.4500 262° West 498 573 32,000  Level New York Oceanic (ODAPS)
Mon 09:56:00 AM 35.4352 -46.6410 262° West 498 573 32,000  Level FlightAware Transoceanic
Mon 09:57:00 AM 35.4156 -46.8098 262° West 498 573 32,000  Level FlightAware Transoceanic
Mon 09:58:00 AM 35.3958 -46.9785 262° West 498 573 32,000  Level FlightAware Transoceanic
Mon 09:59:00 AM 35.3758 -47.1471 262° West 498 573 32,000  Level FlightAware Transoceanic
Mon 10:00:00 AM 35.3556 -47.3156 262° West 498 573 32,000  Level FlightAware Transoceanic
Mon 10:01:00 AM 35.3320 -47.4683 262° West 498 573 32,000  Level FlightAware Transoceanic
Mon 10:02:00 AM 35.3115 -47.6377 262° West 498 573 32,000  Level FlightAware Transoceanic
Mon 10:03:00 AM 35.2908 -47.8070 261° West 498 573 32,000  Level FlightAware Transoceanic
Mon 10:04:00 AM 35.2698 -47.9762 261° West 498 573 32,000  Level FlightAware Transoceanic
Mon 10:05:00 AM 35.2486 -48.1454 261° West 498 573 32,000  Level FlightAware Transoceanic
Mon 10:06:00 AM 35.2272 -48.3144 261° West 498 573 32,000  Level FlightAware Transoceanic
Mon 10:07:00 AM 35.2055 -48.4834 261° West 498 573 32,000  Level FlightAware Transoceanic
Mon 10:08:00 AM 35.1836 -48.6523 261° West 498 573 32,000 1,101 Level FlightAware Transoceanic
Mon 10:08:49 AM 35.1667 -48.8000 261° West 500 575 34,000  Climbing New York Oceanic (ODAPS)
Mon 10:09:00 AM 35.1615 -48.8211 261° West 498 573 32,000 -1,690 Descending FlightAware Transoceanic
Mon 10:10:00 AM 35.1391 -48.9898 261° West 498 573 32,000  Level FlightAware Transoceanic
Mon 10:11:00 AM 35.1165 -49.1584 261° West 498 573 32,000  Level FlightAware Transoceanic
Mon 10:12:00 AM 35.0937 -49.3269 261° West 498 573 32,000  Level FlightAware Transoceanic
Mon 10:13:00 AM 35.0706 -49.4953 260° West 498 573 32,000  Level FlightAware Transoceanic
Mon 10:14:00 AM 35.0473 -49.6637 260° West 498 573 32,000 1,000 Level FlightAware Transoceanic
Mon 10:15:00 AM 35.0245 -49.8289 260° West 500 575 34,000 1,000 Climbing FlightAware Transoceanic
Mon 10:16:00 AM 35.0000 -50.0000 259° West 500 575 34,000  Level FlightAware Transoceanic
Mon 10:16:12 AM 35.0000 -50.0000 259° West 490 564 34,000  Level New York Oceanic (ODAPS)
Mon 10:17:00 AM 34.9743 -50.1648 259° West 500 575 34,000  Level FlightAware Transoceanic
Mon 10:18:00 AM 34.9484 -50.3296 259° West 500 575 34,000  Level FlightAware Transoceanic
Mon 10:19:00 AM 34.9222 -50.4942 259° West 500 575 34,000  Level FlightAware Transoceanic
Mon 10:20:00 AM 34.8959 -50.6588 259° West 500 575 34,000  Level FlightAware Transoceanic
Mon 10:21:00 AM 34.8693 -50.8232 259° West 500 575 34,000  Level FlightAware Transoceanic
Mon 10:22:00 AM 34.8424 -50.9875 259° West 490 564 34,000  Level FlightAware Transoceanic
Mon 10:22:44 AM 34.8167 -51.1167 259° West 487 560 34,000  Level New York Oceanic (ODAPS)
Mon 10:23:00 AM 34.8154 -51.1518 259° West 490 564 34,000  Level FlightAware Transoceanic
Mon 10:24:00 AM 34.7882 -51.3159 259° West 490 564 34,000  Level FlightAware Transoceanic
Mon 10:25:00 AM 34.7607 -51.4799 258° West 490 564 34,000  Level FlightAware Transoceanic
Mon 10:26:00 AM 34.7330 -51.6438 258° West 490 564 34,000  Level FlightAware Transoceanic
Mon 10:27:00 AM 34.7051 -51.8075 258° West 490 564 34,000  Level FlightAware Transoceanic
Mon 10:28:00 AM 34.6769 -51.9712 258° West 490 564 34,000  Level FlightAware Transoceanic
Mon 10:29:00 AM 34.6284 -52.2274 258° West 487 560 34,000  Level FlightAware Transoceanic
Mon 10:30:00 AM 34.6007 -52.3857 258° West 487 560 34,000  Level FlightAware Transoceanic
Mon 10:31:00 AM 34.5728 -52.5438 258° West 487 560 34,000  Level FlightAware Transoceanic
Mon 10:31:35 AM 34.5833 -52.5500 258° West 490 564 34,000  Level New York Oceanic (ODAPS)
Mon 10:32:00 AM 34.5447 -52.7018 258° West 487 560 34,000  Level FlightAware Transoceanic
Mon 10:33:00 AM 34.5164 -52.8598 258° West 487 560 34,000  Level FlightAware Transoceanic
Mon 10:34:00 AM 34.4878 -53.0176 258° West 487 560 34,000  Level FlightAware Transoceanic
Mon 10:35:00 AM 34.4591 -53.1753 257° West 487 560 34,000  Level FlightAware Transoceanic
Mon 10:36:00 AM 34.4302 -53.3330 257° West 487 560 34,000  Level FlightAware Transoceanic
Mon 10:36:41 AM 34.4167 -53.4167 257° West 491 565 34,000  Level New York Oceanic (ODAPS)
Mon 10:37:00 AM 34.4011 -53.4905 257° West 487 560 34,000  Level FlightAware Transoceanic
Mon 10:38:00 AM 34.3807 -53.6533 257° West 490 564 34,000  Level FlightAware Transoceanic
Mon 10:39:00 AM 34.3509 -53.8104 257° West 490 564 34,000  Level FlightAware Transoceanic
Mon 10:40:00 AM 34.3209 -53.9675 257° West 490 564 34,000  Level FlightAware Transoceanic
Mon 10:41:00 AM 34.2908 -54.1244 257° West 490 564 34,000  Level FlightAware Transoceanic
Mon 10:42:00 AM 34.2604 -54.2812 257° West 490 564 34,000  Level FlightAware Transoceanic
Mon 10:43:00 AM 34.2101 -54.5029 257° West 491 565 34,000  Level FlightAware Transoceanic
Mon 10:44:00 AM 34.1798 -54.6576 257° West 491 565 34,000  Level FlightAware Transoceanic
Mon 10:45:00 AM 34.1493 -54.8123 257° West 491 565 34,000  Level FlightAware Transoceanic
Mon 10:46:00 AM 34.1186 -54.9668 256° West 491 565 34,000  Level FlightAware Transoceanic
Mon 10:47:00 AM 34.0878 -55.1212 256° West 491 565 34,000  Level FlightAware Transoceanic
Mon 10:48:00 AM 34.0567 -55.2755 256° West 491 565 34,000  Level FlightAware Transoceanic
Mon 10:49:00 AM 34.0254 -55.4297 256° West 491 565 34,000  Level FlightAware Transoceanic
Mon 10:50:00 AM 33.9940 -55.5837 256° West 491 565 34,000  Level FlightAware Transoceanic
Mon 10:50:44 AM 33.9833 -55.6667 256° West 491 565 34,000  Level New York Oceanic (ODAPS)
Mon 10:51:00 AM 33.9623 -55.7377 256° West 491 565 34,000  Level FlightAware Transoceanic
Mon 10:52:00 AM 33.9305 -55.8915 256° West 491 565 34,000  Level FlightAware Transoceanic
Mon 10:53:00 AM 33.8985 -56.0452 256° West 491 565 34,000  Level FlightAware Transoceanic
Mon 10:54:00 AM 33.8663 -56.1988 256° West 491 565 34,000  Level FlightAware Transoceanic
Mon 10:55:00 AM 33.8339 -56.3523 256° West 491 565 34,000  Level FlightAware Transoceanic
Mon 10:56:00 AM 33.8013 -56.5057 256° West 491 565 34,000  Level FlightAware Transoceanic
Mon 10:57:00 AM 33.7599 -56.7216 255° West 491 565 34,000  Level FlightAware Transoceanic
Mon 10:58:00 AM 33.7272 -56.8718 255° West 491 565 34,000  Level FlightAware Transoceanic
Mon 10:58:24 AM 33.7000 -56.9500 255° West 483 556 34,000  Level New York Oceanic (ODAPS)
Mon 10:59:00 AM 33.6944 -57.0220 255° West 491 565 34,000  Level FlightAware Transoceanic
Mon 11:00:00 AM 33.6614 -57.1720 255° West 491 565 34,000  Level FlightAware Transoceanic
Mon 11:01:00 AM 33.6282 -57.3219 255° West 491 565 34,000  Level FlightAware Transoceanic
Mon 11:02:00 AM 33.5948 -57.4717 255° West 491 565 34,000  Level FlightAware Transoceanic
Mon 11:03:00 AM 33.5612 -57.6213 255° West 491 565 34,000  Level FlightAware Transoceanic
Mon 11:04:00 AM 33.5275 -57.7709 255° West 491 565 34,000  Level FlightAware Transoceanic
Mon 11:04:18 AM 33.5167 -57.7833 255° West 472 543 34,000  Level New York Oceanic (ODAPS)
Mon 11:05:00 AM 33.4635 -58.0231 255° West 483 556 34,000  Level FlightAware Transoceanic
Mon 11:06:00 AM 33.4290 -58.1759 255° West 483 556 34,000  Level FlightAware Transoceanic
Mon 11:07:00 AM 33.3942 -58.3286 255° West 483 556 34,000  Level FlightAware Transoceanic
Mon 11:08:00 AM 33.3593 -58.4811 255° West 483 556 34,000  Level FlightAware Transoceanic
Mon 11:09:00 AM 33.3242 -58.6336 255° West 483 556 34,000  Level FlightAware Transoceanic
Mon 11:10:00 AM 33.3147 -58.6731 255° West 472 543 34,000  Level FlightAware Transoceanic
Mon 11:11:00 AM 33.2804 -58.8210 254° West 472 543 34,000  Level FlightAware Transoceanic
Mon 11:12:00 AM 33.2460 -58.9688 254° West 472 543 34,000  Level FlightAware Transoceanic
Mon 11:13:00 AM 33.2114 -59.1165 254° West 472 543 34,000  Level FlightAware Transoceanic
Mon 11:14:00 AM 33.1766 -59.2640 254° West 472 543 34,000  Level FlightAware Transoceanic
Mon 11:15:00 AM 33.1416 -59.4115 254° West 472 543 34,000  Level FlightAware Transoceanic
Mon 11:16:00 AM 33.1065 -59.5588 254° West 472 543 34,000  Level FlightAware Transoceanic
Mon 11:17:00 AM 33.0712 -59.7060 254° West 472 543 34,000  Level FlightAware Transoceanic
Mon 11:18:00 AM 33.0357 -59.8530 254° West 472 543 34,000  Level FlightAware Transoceanic
Mon 11:18:09 AM 33.0333 -59.8667 253° West 459 528 34,000  Level New York Oceanic (ODAPS)
Mon 11:19:00 AM 33.0000 -60.0000 252° West 472 543 34,000  Level FlightAware Transoceanic
Mon 11:19:14 AM 33.0000 -60.0000 252° West 468 539 34,000  Level New York Oceanic (ODAPS)
Mon 11:20:00 AM 32.9590 -60.1505 252° West 472 543 34,000  Level FlightAware Transoceanic
Mon 11:21:00 AM 32.9177 -60.3008 252° West 472 543 34,000  Level FlightAware Transoceanic
Mon 11:22:00 AM 32.8763 -60.4511 252° West 472 543 34,000  Level FlightAware Transoceanic
Mon 11:23:00 AM 32.8348 -60.6011 252° West 472 543 34,000  Level FlightAware Transoceanic
Mon 11:24:00 AM 32.7930 -60.7511 252° West 459 528 34,000  Level FlightAware Transoceanic
Mon 11:25:00 AM 32.7511 -60.9008 252° West 468 539 34,000  Level FlightAware Transoceanic
Mon 11:26:00 AM 32.7090 -61.0505 251° West 468 539 34,000  Level FlightAware Transoceanic
Mon 11:26:58 AM 32.6667 -61.2000 269° West 472 543 34,000  Level New York Oceanic (ODAPS)
Mon 11:27:00 AM 32.6667 -61.2000 269° West 468 539 34,000  Level FlightAware Transoceanic
Mon 11:28:00 AM 32.6638 -61.3603 269° West 468 539 34,000  Level FlightAware Transoceanic
Mon 11:29:00 AM 32.6608 -61.5206 269° West 468 539 34,000  Level FlightAware Transoceanic
Mon 11:30:00 AM 32.6576 -61.6808 269° West 468 539 34,000  Level FlightAware Transoceanic
Mon 11:31:00 AM 32.6541 -61.8411 268° West 468 539 34,000  Level FlightAware Transoceanic
Mon 11:31:49 AM 32.6500 -61.9667 268° West 473 544 34,000  Level New York Oceanic (ODAPS)
Mon 11:32:00 AM 32.6505 -62.0014 268° West 468 539 34,000  Level FlightAware Transoceanic
Mon 11:33:00 AM 32.6471 -62.1402 268° West 472 543 34,000  Level FlightAware Transoceanic
Mon 11:34:00 AM 32.6432 -62.2969 268° West 472 543 34,000  Level FlightAware Transoceanic
Mon 11:35:00 AM 32.6390 -62.4535 268° West 472 543 34,000  Level FlightAware Transoceanic
Mon 11:36:00 AM 32.6347 -62.6101 268° West 472 543 34,000  Level FlightAware Transoceanic
Mon 11:37:00 AM 32.6302 -62.7668 268° West 472 543 34,000  Level FlightAware Transoceanic
Mon 11:38:00 AM 32.6249 -62.9090 268° West 473 544 34,000  Level FlightAware Transoceanic
Mon 11:39:00 AM 32.6200 -63.0660 268° West 473 544 34,000  Level FlightAware Transoceanic
Mon 11:40:00 AM 32.6149 -63.2230 268° West 473 544 34,000  Level FlightAware Transoceanic
Mon 11:41:00 AM 32.6096 -63.3800 268° West 473 544 34,000  Level FlightAware Transoceanic
Mon 11:42:00 AM 32.6042 -63.5369 268° West 473 544 34,000  Level FlightAware Transoceanic
Mon 11:43:00 AM 32.5985 -63.6939 268° West 473 544 34,000  Level FlightAware Transoceanic
Mon 11:44:00 AM 32.5927 -63.8508 267° West 473 544 34,000  Level FlightAware Transoceanic
Mon 11:45:00 AM 32.5866 -64.0077 267° West 473 544 34,000  Level FlightAware Transoceanic
Mon 11:45:42 AM 32.5833 -64.1000 267° West 467 537 34,000  Level New York Oceanic (ODAPS)
Mon 11:46:00 AM 32.5804 -64.1645 267° West 473 544 34,000  Level FlightAware Transoceanic
Mon 11:47:00 AM 32.5740 -64.3214 267° West 473 544 34,000  Level FlightAware Transoceanic
Mon 11:48:00 AM 32.5673 -64.4782 267° West 473 544 34,000  Level FlightAware Transoceanic
Mon 11:49:00 AM 32.5605 -64.6350 267° West 473 544 34,000  Level FlightAware Transoceanic
Mon 11:50:00 AM 32.5535 -64.7918 267° West 473 544 34,000  Level FlightAware Transoceanic
Mon 11:51:00 AM 32.5463 -64.9485 267° West 473 544 34,000  Level FlightAware Transoceanic
Mon 11:52:00 AM 32.5432 -65.0203 267° West 467 537 34,000  Level FlightAware Transoceanic
Mon 11:53:00 AM 32.5358 -65.1736 267° West 467 537 34,000  Level FlightAware Transoceanic
Mon 11:54:00 AM 32.5283 -65.3268 267° West 467 537 34,000  Level FlightAware Transoceanic
Mon 11:55:00 AM 32.5206 -65.4801 267° West 467 537 34,000  Level FlightAware Transoceanic
Mon 11:56:00 AM 32.5127 -65.6333 266° West 467 537 34,000  Level FlightAware Transoceanic
Mon 11:57:00 AM 32.5046 -65.7865 266° West 467 537 34,000  Level FlightAware Transoceanic
Mon 11:58:00 AM 32.4963 -65.9397 266° West 467 537 34,000  Level FlightAware Transoceanic
Mon 11:59:00 AM 32.4879 -66.0928 266° West 467 537 34,000  Level FlightAware Transoceanic
Mon 11:59:36 AM 32.4833 -66.2500 266° West 475 547 34,000  Level New York Oceanic (ODAPS)
Mon 12:00:00 PM 32.4792 -66.2459 266° West 467 537 34,000  Level FlightAware Transoceanic
Mon 12:01:00 PM 32.4704 -66.3990 266° West 467 537 34,000  Level FlightAware Transoceanic
Mon 12:02:00 PM 32.4614 -66.5520 266° West 467 537 34,000  Level FlightAware Transoceanic
Mon 12:03:00 PM 32.4522 -66.7050 266° West 467 537 34,000  Level FlightAware Transoceanic
Mon 12:04:00 PM 32.4428 -66.8580 266° West 467 537 34,000  Level FlightAware Transoceanic
Mon 12:05:00 PM 32.4332 -67.0110 266° West 467 537 34,000  Level FlightAware Transoceanic
Mon 12:06:00 PM 32.4154 -67.3187 265° West 475 547 34,000  Level FlightAware Transoceanic
Mon 12:07:00 PM 32.4050 -67.4712 265° West 475 547 34,000  Level FlightAware Transoceanic
Mon 12:08:00 PM 32.3943 -67.6237 265° West 475 547 34,000  Level FlightAware Transoceanic
Mon 12:09:00 PM 32.3835 -67.7762 265° West 475 547 34,000  Level FlightAware Transoceanic
Mon 12:10:00 PM 32.3725 -67.9286 265° West 475 547 34,000  Level FlightAware Transoceanic
Mon 12:11:00 PM 32.3614 -68.0810 265° West 475 547 34,000  Level FlightAware Transoceanic
Mon 12:12:00 PM 32.3500 -68.2333 265° West 475 547 34,000  Level FlightAware Transoceanic
Mon 12:12:11 PM 32.3500 -68.2333 265° West 484 557 34,000  Level New York Oceanic (ODAPS)
Mon 12:13:00 PM 32.3377 -68.3886 265° West 475 547 34,000  Level FlightAware Transoceanic
Mon 12:13:26 PM 32.3333 -68.4500 265° West 484 557 34,000  Level New York Oceanic (ODAPS)
Mon 12:14:00 PM 32.3252 -68.5439 265° West 475 547 34,000  Level FlightAware Transoceanic
Mon 12:15:00 PM 32.3125 -68.6991 264° West 475 547 34,000  Level FlightAware Transoceanic
Mon 12:16:00 PM 32.2996 -68.8543 264° West 475 547 34,000  Level FlightAware Transoceanic
Mon 12:17:00 PM 32.2866 -69.0094 264° West 475 547 34,000  Level FlightAware Transoceanic
Mon 12:18:00 PM 32.2733 -69.1645 264° West 484 557 34,000  Level FlightAware Transoceanic
Mon 12:19:00 PM 32.2556 -69.3742 264° West 484 557 34,000  Level FlightAware Transoceanic
Mon 12:20:00 PM 32.2420 -69.5281 264° West 484 557 34,000  Level FlightAware Transoceanic
Mon 12:21:00 PM 32.2282 -69.6819 264° West 484 557 34,000  Level FlightAware Transoceanic
Mon 12:22:00 PM 32.2142 -69.8357 264° West 484 557 34,000  Level FlightAware Transoceanic
Mon 12:23:00 PM 32.2000 -69.9894 264° West 484 557 34,000  Level FlightAware Transoceanic
Mon 12:24:00 PM 32.1856 -70.1431 264° West 484 557 34,000  Level FlightAware Transoceanic
Mon 12:25:00 PM 32.1711 -70.2967 264° West 484 557 34,000  Level FlightAware Transoceanic
Mon 12:26:00 PM 32.1564 -70.4503 263° West 484 557 34,000  Level FlightAware Transoceanic
Mon 12:27:00 PM 32.1414 -70.6039 263° West 484 557 34,000  Level FlightAware Transoceanic
Mon 12:27:27 PM 32.1500 -70.6667 263° West 477 549 34,000  Level New York Oceanic (ODAPS)
Mon 12:28:00 PM 32.1264 -70.7573 263° West 484 557 34,000  Level FlightAware Transoceanic
Mon 12:29:00 PM 32.1111 -70.9108 263° West 484 557 34,000  Level FlightAware Transoceanic
Mon 12:30:00 PM 32.0956 -71.0642 263° West 484 557 34,000  Level FlightAware Transoceanic
Mon 12:31:00 PM 32.0799 -71.2175 263° West 484 557 34,000  Level FlightAware Transoceanic
Mon 12:32:00 PM 32.0641 -71.3708 263° West 484 557 34,000  Level FlightAware Transoceanic
Mon 12:33:00 PM 32.0550 -71.5779 263° West 477 549 34,000  Level FlightAware Transoceanic
Mon 12:34:00 PM 32.0386 -71.7295 263° West 477 549 34,000  Level FlightAware Transoceanic
Mon 12:34:45 PM 32.0500 -71.7833 262° West 469 540 34,000  Level New York Oceanic (ODAPS)
Mon 12:35:00 PM 32.0219 -71.8812 263° West 477 549 34,000  Level FlightAware Transoceanic
Mon 12:36:00 PM 32.0051 -72.0327 263° West 477 549 34,000  Level FlightAware Transoceanic
Mon 12:37:00 PM 31.9881 -72.1842 262° West 477 549 34,000  Level FlightAware Transoceanic
Mon 12:38:00 PM 31.9709 -72.3357 262° West 477 549 34,000  Level FlightAware Transoceanic
Mon 12:39:00 PM 31.9535 -72.4871 262° West 477 549 34,000  Level FlightAware Transoceanic
Mon 12:40:00 PM 31.9360 -72.6384 262° West 477 549 34,000  Level FlightAware Transoceanic
Mon 12:41:00 PM 31.9271 -72.8328 262° West 469 540 34,000  Level FlightAware Transoceanic
Mon 12:41:21 PM 31.9333 -72.8000 262° West 468 539 34,000  Level New York Oceanic (ODAPS)
Mon 12:42:00 PM 31.9088 -72.9825 262° West 469 540 34,000  Level FlightAware Transoceanic
Mon 12:43:00 PM 31.8904 -73.1321 262° West 469 540 34,000  Level FlightAware Transoceanic
Mon 12:44:00 PM 31.8717 -73.2817 262° West 469 540 34,000  Level FlightAware Transoceanic
Mon 12:45:00 PM 31.8529 -73.4312 262° West 469 540 34,000  Level FlightAware Transoceanic
Mon 12:46:00 PM 31.8340 -73.5807 261° West 469 540 34,000  Level FlightAware Transoceanic
Mon 12:47:00 PM 31.8200 -73.7044 261° West 468 539 34,000  Level FlightAware Transoceanic
Mon 12:48:00 PM 31.8004 -73.8549 261° West 468 539 34,000  Level FlightAware Transoceanic
Mon 12:48:12 PM 31.8000 -73.8500 261° West 472 543 34,000  Level New York Oceanic (ODAPS)
Mon 12:49:00 PM 31.7807 -74.0053 261° West 468 539 34,000  Level FlightAware Transoceanic
Mon 12:49:32 PM 31.7667 -74.0667 261° West 472 543 34,000  Level New York Oceanic (ODAPS)
Mon 12:50:00 PM 31.7609 -74.1557 261° West 468 539 34,000  Level FlightAware Transoceanic
Mon 12:51:00 PM 31.7408 -74.3060 261° West 468 539 34,000  Level FlightAware Transoceanic
Mon 12:52:00 PM 31.7206 -74.4562 261° West 468 539 34,000  Level FlightAware Transoceanic
Mon 12:55:22 PM 31.6667 -74.9000 261° West 462 532 34,000  Level New York Oceanic (ODAPS)
Mon 01:01:54 PM 31.5167 -75.9000 260° West 473 544 34,000  Level New York Oceanic (ODAPS)
Mon 01:06:31 PM 31.4325 -76.6092 260° West 475 547 34,000 -18 Level Jacksonville Center
Mon 01:07:31 PM 31.4233 -76.7608 266° West 465 535 33,900 500 Descending Jacksonville Center
Mon 01:08:31 PM 31.4942 -76.8900 303° West 443 510 35,000 1,050 Climbing Jacksonville Center
Mon 01:09:31 PM 31.5925 -76.9861 320° Northwest 437 503 36,000 500 Climbing Jacksonville Center
Mon 01:10:31 PM 31.6972 -77.0794 323° Northwest 451 519 36,000 -50 Level Jacksonville Center
Mon 01:11:31 PM 31.8056 -77.1681 325° Northwest 463 533 35,900  Descending Jacksonville Center
Mon 01:12:31 PM 31.9000 -77.2722 317° Northwest 463 533 36,000 50 Climbing Jacksonville Center
Mon 01:13:31 PM 32.0025 -77.3736 320° Northwest 473 544 36,000  Level Jacksonville Center
Mon 01:19:21 PM 32.3650 -78.1980 320° Northwest 473 544 36,000  Level FlightAware ADS-B
Mon 01:19:56 PM 32.3920 -78.2830 291° West 472 543 36,000  Level FlightAware ADS-B
Mon 01:20:36 PM 32.4220 -78.3770 291° West 470 541 36,000  Level FlightAware ADS-B
Mon 01:21:16 PM 32.4530 -78.4740 291° West 469 540 36,000  Level FlightAware ADS-B
Mon 01:21:56 PM 32.4850 -78.5720 291° West 469 540 36,000  Level FlightAware ADS-B
Mon 01:22:36 PM 32.5150 -78.6640 291° West 468 539 36,000  Level FlightAware ADS-B
Mon 01:23:16 PM 32.5470 -78.7640 291° West 467 537 36,000  Level FlightAware ADS-B
Mon 01:24:01 PM 32.5790 -78.8630 291° West 467 537 36,000  Level FlightAware ADS-B
Mon 01:24:42 PM 32.6120 -78.9670 291° West 467 537 36,000  Level FlightAware ADS-B
Mon 01:25:26 PM 32.6460 -79.0740 291° West 467 537 36,000  Level FlightAware ADS-B
Mon 01:25:51 PM 32.6650 -79.1330 291° West 466 536 36,000  Level FlightAware ADS-B
Mon 01:26:36 PM 32.7000 -79.2420 291° West 467 537 36,000  Level FlightAware ADS-B
Mon 01:27:17 PM 32.7300 -79.3370 291° West 467 537 36,000  Level FlightAware ADS-B
Mon 01:27:47 PM 32.7530 -79.4110 290° West 467 537 36,000  Level FlightAware ADS-B
Mon 01:28:17 PM 32.7760 -79.4830 291° West 467 537 36,000  Level FlightAware ADS-B
Mon 01:28:52 PM 32.8010 -79.5650 290° West 467 537 36,000  Level FlightAware ADS-B
Mon 01:29:37 PM 32.8350 -79.6720 291° West 466 536 36,000  Level FlightAware ADS-B
Mon 01:30:17 PM 32.8650 -79.7670 291° West 466 536 36,000  Level FlightAware ADS-B
Mon 01:31:02 PM 32.8980 -79.8740 290° West 466 536 36,000  Level FlightAware ADS-B
Mon 01:31:42 PM 32.9280 -79.9740 290° West 464 534 36,000  Level FlightAware ADS-B
Mon 01:32:27 PM 32.9550 -80.0850 286° West 461 531 36,000  Level FlightAware ADS-B
Mon 01:33:07 PM 32.9620 -80.1880 275° West 461 531 36,000  Level FlightAware ADS-B
Mon 01:33:42 PM 32.9660 -80.2680 273° West 460 529 36,000  Level FlightAware ADS-B
Mon 01:34:27 PM 32.9710 -80.3880 273° West 460 529 36,000  Level FlightAware ADS-B
Mon 01:35:07 PM 32.9760 -80.4900 273° West 460 529 36,000  Level FlightAware ADS-B
Mon 01:35:49 PM 32.9800 -80.5970 273° West 460 529 36,000  Level FlightAware ADS-B
Mon 01:36:29 PM 32.9840 -80.6970 273° West 460 529 36,000  Level FlightAware ADS-B
Mon 01:37:15 PM 32.9880 -80.8120 272° West 459 528 36,000  Level FlightAware ADS-B
Mon 01:37:54 PM 32.9920 -80.9120 273° West 458 527 36,000  Level FlightAware ADS-B
Mon 01:38:29 PM 32.9950 -80.9970 272° West 457 526 36,000  Level FlightAware ADS-B
Mon 01:39:09 PM 32.9990 -81.1010 273° West 456 525 36,000  Level FlightAware ADS-B
Mon 01:39:54 PM 33.0030 -81.2140 272° West 455 524 36,000  Level FlightAware ADS-B
Mon 01:40:34 PM 33.0060 -81.3120 272° West 454 522 36,000  Level FlightAware ADS-B
Mon 01:41:19 PM 33.0100 -81.4240 272° West 455 524 36,000  Level FlightAware ADS-B
Mon 01:42:24 PM 33.0150 -81.5820 272° West 454 522 36,000  Level FlightAware ADS-B
Mon 01:42:54 PM 33.0170 -81.6560 272° West 455 524 36,000  Level FlightAware ADS-B
Mon 01:43:24 PM 33.0200 -81.7350 273° West 455 524 36,000  Level FlightAware ADS-B
Mon 01:44:04 PM 33.0220 -81.8300 271° West 456 525 36,000 -75 Level FlightAware ADS-B
Mon 01:44:44 PM 33.0250 -81.9300 272° West 456 525 35,900 -706 Descending FlightAware ADS-B
Mon 01:45:29 PM 33.0290 -82.0490 272° West 461 531 35,000 -635 Descending FlightAware ADS-B
Mon 01:46:09 PM 33.0310 -82.1460 271° West 462 532 35,000 -635 Level FlightAware ADS-B
Mon 01:46:54 PM 33.0350 -82.2650 272° West 462 532 34,100 -1,950 Descending FlightAware ADS-B
Mon 01:47:29 PM 33.0390 -82.3480 273° West 469 540 32,400 -2,960 Descending FlightAware ADS-B
Mon 01:48:09 PM 33.0490 -82.4540 276° West 472 543 30,400 -2,894 Descending FlightAware ADS-B
Mon 01:48:54 PM 33.0620 -82.5720 278° West 470 541 28,300 -2,775 Descending FlightAware ADS-B
Mon 01:49:29 PM 33.0720 -82.6560 278° West 468 539 26,700 -2,341 Descending FlightAware ADS-B
Mon 01:50:16 PM 33.0860 -82.7750 278° West 452 520 25,100 -1,744 Descending FlightAware ADS-B
Mon 01:50:55 PM 33.0970 -82.8720 278° West 441 507 24,200 -1,301 Descending FlightAware ADS-B
Mon 01:51:39 PM 33.0980 -82.8840 276° West 434 499 23,300 -1,200 Descending FlightAware ADS-B
Mon 01:52:15 PM 33.1170 -83.0600 277° West 428 493 22,600 -1,778 Descending FlightAware ADS-B
Mon 01:53:00 PM 33.1290 -83.1670 278° West 417 480 20,900 -2,222 Descending FlightAware ADS-B
Mon 01:53:36 PM 33.1380 -83.2460 278° West 410 472 19,600 -2,268 Descending FlightAware ADS-B
Mon 01:54:22 PM 33.1480 -83.3450 277° West 400 460 17,800 -2,250 Descending FlightAware ADS-B
Mon 01:55:04 PM 33.1580 -83.4400 277° West 391 450 16,300 -2,167 Descending FlightAware ADS-B
Mon 01:55:34 PM 33.1650 -83.5010 278° West 386 444 15,200 -2,156 Descending FlightAware ADS-B
Mon 01:56:08 PM 33.1720 -83.5740 277° West 378 435 14,000 -1,971 Descending FlightAware ADS-B
Mon 01:56:44 PM 33.1800 -83.6440 278° West 369 425 12,900 -1,406 Descending FlightAware ADS-B
Mon 01:57:12 PM 33.1860 -83.7010 277° West 346 398 12,500 -600 Descending FlightAware ADS-B
Mon 01:57:54 PM 33.1940 -83.7770 277° West 313 360 12,200 -371 Descending FlightAware ADS-B
Mon 01:58:49 PM 33.2110 -83.8580 284° West 293 337 11,900 -198 Descending FlightAware ADS-B
Mon 01:59:25 PM 33.2250 -83.9040 290° West 293 337 11,900 -1,315 Level FlightAware ADS-B
Mon 02:00:02 PM 33.2740 -83.9440 326° Northwest 237 273 10,300 -2,264 Descending FlightAware ADS-B
Mon 02:00:18 PM 33.2840 -83.9590 309° West 230 265 9,900 -1,714 Descending FlightAware ADS-B
Mon 02:00:44 PM 33.3010 -83.9850 308° West 227 261 9,100 -1,909 Descending FlightAware ADS-B
Mon 02:01:02 PM 33.3140 -84.0040 309° West 229 264 8,500 -1,500 Descending FlightAware ADS-B
Mon 02:01:32 PM 33.3330 -84.0330 308° West 229 264 7,900 -643 Descending FlightAware ADS-B
Mon 02:01:58 PM 33.3510 -84.0580 311° West 226 260 7,900  Level FlightAware ADS-B
Mon 02:02:06 PM 33.3570 -84.0610 337° Northwest 229 264 7,900  Level FlightAware ADS-B
Mon 02:03:04 PM 33.4010 -84.0140 42° Northeast 260 299 7,900  Level FlightAware ADS-B
Mon 02:03:30 PM 33.4030 -83.9780 86° East 245 282 7,900  Level FlightAware ADS-B
Mon 02:03:42 PM 33.4090 -83.9640 63° Northeast 232 267 7,900  Level FlightAware ADS-B
Mon 02:03:54 PM 33.4200 -83.9550 34° Northeast 225 259 7,900  Level FlightAware ADS-B
Mon 02:04:04 PM 33.4300 -83.9530 North 218 251 7,900  Level FlightAware ADS-B
Mon 02:04:26 PM 33.4500 -83.9560 353° North 221 254 7,900  Level FlightAware ADS-B
Mon 02:04:55 PM 33.4800 -83.9620 351° North 217 250 7,900 -115 Level FlightAware ADS-B
Mon 02:05:18 PM 33.5030 -83.9700 344° North 211 243 7,800 -615 Descending FlightAware ADS-B
Mon 02:05:34 PM 33.5170 -83.9750 343° North 208 239 7,500 -1,174 Descending FlightAware ADS-B
Mon 02:06:04 PM 33.5440 -83.9870 340° North 205 236 6,900 -667 Descending FlightAware ADS-B
Mon 02:06:28 PM 33.5650 -83.9960 340° North 207 238 6,900  Level FlightAware ADS-B
Mon 02:06:48 PM 33.5840 -84.0040 341° North 210 242 6,900  Level FlightAware ADS-B
Mon 02:07:06 PM 33.5950 -84.0190 311° West 212 244 6,900  Level FlightAware ADS-B
Mon 02:07:34 PM 33.6090 -84.0500 298° West 224 258 6,900  Level FlightAware ADS-B
Mon 02:07:46 PM 33.6130 -84.0640 289° West 220 253 6,900 -250 Level FlightAware ADS-B
Mon 02:07:58 PM 33.6140 -84.0790 275° West 222 255 6,800 -1,091 Descending FlightAware ADS-B
Mon 02:08:30 PM 33.6150 -84.1170 272° West 217 250 6,100 -1,279 Descending FlightAware ADS-B
Mon 02:08:59 PM 33.6150 -84.1510 270° West 219 252 5,500 -1,200 Descending FlightAware ADS-B
Mon 02:09:10 PM 33.6140 -84.1660 265° West 217 250 5,300 -1,034 Descending FlightAware ADS-B
Mon 02:09:28 PM 33.6140 -84.1860 270° West 195 224 5,000 -1,043 Descending FlightAware ADS-B
Mon 02:09:56 PM 33.6150 -84.2150 272° West 182 209 4,500 -938 Descending FlightAware ADS-B
Mon 02:10:32 PM 33.6150 -84.2520 270° West 182 209 4,000 -900 Descending FlightAware ADS-B
Mon 02:10:56 PM 33.6150 -84.2760 270° West 187 215 3,600 -1,000 Descending FlightAware ADS-B
Mon 02:11:20 PM 33.6160 -84.3010 273° West 185 213 3,200 -1,000 Descending FlightAware ADS-B
Mon 02:11:44 PM 33.6160 -84.3250 270° West 180 207 2,800 -923 Descending FlightAware ADS-B
Mon 02:12:12 PM 33.6160 -84.3500 270° West 175 201 2,400 -750 Descending FlightAware ADS-B
Mon 02:12:40 PM 33.6160 -84.3770 270° West 153 176 2,100 -706 Descending FlightAware ADS-B
Mon 02:13:03 PM 33.6160 -84.3930 270° West 154 177 1,800 -800 Descending FlightAware ADS-B
Mon 02:13:40 PM 33.6170 -84.4270 272° West 153 176 1,300 -831 Descending FlightAware ADS-B
Mon 02:14:08 PM 33.6170 -84.4510 270° West 154 177 900 -857 Descending FlightAware ADS-B
Mon 02:14:42 PM 33.6170 -84.4700 270° West 35 40 -1,588 Descending FlightAware ADS-B
Mon 02:14:52 PM 33.6180 -84.4720 301° West 25 29  Level FlightAware ADS-B
Mon 02:15:20 PM 33.6190 -84.4740 301° West 22 25  Level FlightAware ADS-B
Mon 02:15:30 PM 33.6200 -84.4760 301° West 22 25  Level FlightAware ADS-B
Mon 02:15:56 PM 33.6200 -84.4780 270° West 19 22  Level FlightAware ADS-B
Mon 02:16:52 PM 33.6210 -84.4790 320° Northwest 13 15  Level FlightAware ADS-B

Login

Don't have an account? Register now (free) for customized features, flight alerts, and more!